createdAt,value
2022-08-17T00:00:49.467Z,100299.41
2022-08-17T00:05:47.887Z,100327.53
2022-08-17T00:10:43.546Z,100325.00
2022-08-17T00:15:37.206Z,100316.53
2022-08-17T00:20:32.110Z,100298.41
2022-08-17T00:25:35.220Z,100314.34
2022-08-17T00:30:30.196Z,100293.16
2022-08-17T00:35:45.141Z,100307.00
2022-08-17T00:40:45.657Z,100322.44
2022-08-17T00:45:39.800Z,100317.44
2022-08-17T00:50:33.845Z,100306.66
2022-08-17T00:55:29.363Z,100320.69
2022-08-17T01:00:26.907Z,100286.59
2022-08-17T01:05:25.607Z,100318.53
2022-08-17T01:10:59.083Z,100331.50
2022-08-17T01:15:42.352Z,100339.00
2022-08-17T01:20:48.651Z,100313.72
2022-08-17T01:25:42.648Z,100329.50
2022-08-17T01:30:58.895Z,100323.00
2022-08-17T01:35:48.502Z,100322.31
2022-08-17T01:40:57.067Z,100330.69
2022-08-17T01:46:02.665Z,100340.63
2022-08-17T01:50:57.720Z,100337.56
2022-08-17T01:55:58.872Z,100322.53
2022-08-17T02:01:01.000Z,100345.84
2022-08-17T02:05:56.467Z,100354.19
2022-08-17T02:10:51.159Z,100347.69
2022-08-17T02:15:45.205Z,100357.78
2022-08-17T02:20:42.140Z,100344.63
2022-08-17T02:25:37.685Z,100367.13
2022-08-17T02:30:59.492Z,100317.34
2022-08-17T02:35:44.407Z,100370.13
2022-08-17T02:40:38.256Z,100372.53
2022-08-17T02:45:32.057Z,100374.38
2022-08-17T02:50:27.514Z,100374.66
2022-08-17T02:55:28.060Z,100364.94
2022-08-17T03:00:29.623Z,100332.28
2022-08-17T03:05:24.569Z,100353.66
2022-08-17T03:10:18.452Z,100360.56
2022-08-17T03:15:20.432Z,100362.94
2022-08-17T03:20:16.567Z,100333.69
2022-08-17T03:25:11.280Z,100372.22
2022-08-17T03:30:26.739Z,100360.25
2022-08-17T03:35:24.212Z,100342.53
2022-08-17T03:40:34.367Z,100330.56
2022-08-17T03:45:54.869Z,100334.06
2022-08-17T03:51:10.359Z,100329.50
2022-08-17T03:56:27.253Z,100359.97
2022-08-17T04:01:23.724Z,100356.69
2022-08-17T04:06:17.907Z,100357.31
2022-08-17T04:11:12.536Z,100369.44
2022-08-17T04:16:06.067Z,100352.59
2022-08-17T04:20:59.808Z,100348.13
2022-08-17T04:25:54.400Z,100370.97
2022-08-17T04:30:48.794Z,100364.78
2022-08-17T04:35:49.374Z,100374.50
2022-08-17T04:41:01.927Z,100364.22
2022-08-17T04:46:20.569Z,100394.38
2022-08-17T04:51:28.430Z,100401.56
2022-08-17T04:56:21.943Z,100399.16
2022-08-17T05:01:17.004Z,100394.50
2022-08-17T05:06:17.379Z,100433.22
2022-08-17T05:11:10.872Z,100431.38
2022-08-17T05:16:06.560Z,100430.69
2022-08-17T05:21:00.799Z,100418.84
2022-08-17T05:25:57.295Z,100453.72
2022-08-17T05:30:52.402Z,100414.75
2022-08-17T05:35:48.633Z,100454.59
2022-08-17T05:40:42.216Z,100485.03
2022-08-17T05:45:55.362Z,100456.00
2022-08-17T05:51:05.423Z,100430.66
2022-08-17T05:56:37.361Z,100472.22
2022-08-17T06:01:48.698Z,100439.81
2022-08-17T06:06:50.406Z,100441.34
2022-08-17T06:11:54.227Z,100423.19
2022-08-17T06:17:02.747Z,100462.75
2022-08-17T06:21:57.652Z,100449.47
2022-08-17T06:26:53.139Z,100445.19
2022-08-17T06:31:47.929Z,100455.63
2022-08-17T06:37:27.793Z,100452.53
2022-08-17T06:42:54.686Z,100481.03
2022-08-17T06:48:00.441Z,100460.75
2022-08-17T06:53:03.675Z,100466.03
2022-08-17T06:58:05.864Z,100449.84
2022-08-17T07:03:09.904Z,100459.16
2022-08-17T07:08:09.276Z,100459.78
2022-08-17T07:13:24.341Z,100473.13
2022-08-17T07:18:18.438Z,100453.81
2022-08-17T07:23:27.478Z,100443.72
2022-08-17T07:28:24.291Z,100430.59
2022-08-17T07:33:37.719Z,100461.44
2022-08-17T07:38:51.540Z,100421.78
2022-08-17T07:43:44.308Z,100439.88
2022-08-17T07:48:39.669Z,100434.44
2022-08-17T07:53:33.460Z,100435.69
2022-08-17T07:58:27.274Z,100427.69
2022-08-17T08:03:34.552Z,100462.16
2022-08-17T08:08:42.598Z,100454.09
2022-08-17T08:13:42.849Z,100467.06
2022-08-17T08:18:55.446Z,100487.72
2022-08-17T08:24:00.482Z,100474.94
2022-08-17T08:29:02.160Z,100460.25
2022-08-17T08:35:00.199Z,100450.50
2022-08-17T08:39:31.730Z,100434.69
2022-08-17T08:45:01.350Z,100430.53
2022-08-17T08:50:40.409Z,100454.03
2022-08-17T08:55:52.629Z,100438.59
2022-08-17T09:00:51.891Z,100430.41
2022-08-17T09:05:54.555Z,100442.84
2022-08-17T09:11:10.899Z,100413.53
2022-08-17T09:16:15.029Z,100432.41
2022-08-17T09:21:33.691Z,100412.38
2022-08-17T09:26:40.341Z,100398.13
2022-08-17T09:31:49.310Z,100404.16
2022-08-17T09:37:07.381Z,100433.31
2022-08-17T09:42:11.737Z,100446.75
2022-08-17T09:47:15.677Z,100449.94
2022-08-17T09:52:17.850Z,100420.66
2022-08-17T09:57:30.336Z,100453.63
2022-08-17T10:02:55.619Z,100440.22
2022-08-17T10:08:12.285Z,100432.84
2022-08-17T10:13:30.325Z,100439.34
2022-08-17T10:18:33.214Z,100443.59
2022-08-17T10:23:49.081Z,100451.47
2022-08-17T10:28:51.814Z,100458.00
2022-08-17T10:34:14.928Z,100470.97
2022-08-17T10:39:27.129Z,100410.38
2022-08-17T10:44:40.170Z,100460.06
2022-08-17T10:49:48.078Z,100443.78
2022-08-17T10:54:46.581Z,100412.66
2022-08-17T10:59:39.185Z,100431.91
2022-08-17T11:04:31.642Z,100442.66
2022-08-17T11:09:30.365Z,100413.09
2022-08-17T11:14:54.799Z,100425.53
2022-08-17T11:19:56.741Z,100418.63
2022-08-17T11:25:23.564Z,100408.22
2022-08-17T11:30:45.429Z,100415.94
2022-08-17T11:35:49.171Z,100415.25
2022-08-17T11:40:46.652Z,100418.13
2022-08-17T11:46:21.317Z,100394.97
2022-08-17T11:51:39.392Z,100337.00
2022-08-17T11:56:43.349Z,100360.00
2022-08-17T12:01:53.847Z,100352.44
2022-08-17T12:06:55.316Z,100347.22
2022-08-17T12:12:14.959Z,100363.97
2022-08-17T12:17:20.875Z,100332.63
2022-08-17T12:22:41.113Z,100369.03
2022-08-17T12:27:54.818Z,100384.81
2022-08-17T12:32:57.917Z,100378.09
2022-08-17T12:37:56.319Z,100385.03
2022-08-17T12:43:01.246Z,100379.09
2022-08-17T12:48:08.528Z,100385.44
2022-08-17T12:53:02.690Z,100391.88
2022-08-17T12:58:00.854Z,100398.09
2022-08-17T13:03:17.973Z,100401.78
2022-08-17T13:08:16.531Z,100374.06
2022-08-17T13:13:25.271Z,100366.28
2022-08-17T13:18:30.356Z,100377.25
2022-08-17T13:23:23.896Z,100370.19
2022-08-17T13:28:32.446Z,100370.88
2022-08-17T13:33:45.146Z,100330.97
2022-08-17T13:38:48.036Z,100307.22
2022-08-17T13:43:53.811Z,100239.97
2022-08-17T13:48:57.728Z,100257.84
2022-08-17T13:53:56.148Z,100263.25
2022-08-17T13:58:54.028Z,100265.63
2022-08-17T14:03:47.541Z,100279.75
2022-08-17T14:08:45.784Z,100290.63
2022-08-17T14:13:44.100Z,100293.19
2022-08-17T14:18:56.688Z,100301.94
2022-08-17T14:23:54.810Z,100266.63
2022-08-17T14:28:56.433Z,100305.63
2022-08-17T14:33:50.422Z,100309.50
2022-08-17T14:38:44.879Z,100329.84
2022-08-17T14:43:43.191Z,100300.56
2022-08-17T14:48:39.112Z,100306.44
2022-08-17T14:53:33.269Z,100303.63
2022-08-17T14:58:27.099Z,100322.63
2022-08-17T15:03:20.915Z,100307.00
2022-08-17T15:08:16.802Z,100302.78
2022-08-17T15:13:23.315Z,100285.63
2022-08-17T15:18:17.236Z,100291.53
2022-08-17T15:23:14.233Z,100289.69
2022-08-17T15:28:07.847Z,100282.34
2022-08-17T15:33:02.960Z,100271.22
2022-08-17T15:38:10.754Z,100264.31
2022-08-17T15:43:28.984Z,100289.91
2022-08-17T15:48:23.972Z,100300.66
2022-08-17T15:53:17.553Z,100299.50
2022-08-17T15:58:11.961Z,100301.19
2022-08-17T16:03:44.866Z,100316.31
2022-08-17T16:08:21.372Z,100302.84
2022-08-17T16:13:18.183Z,100276.44
2022-08-17T16:18:13.398Z,100279.97
2022-08-17T16:23:07.645Z,100277.47
2022-08-17T16:28:03.573Z,100247.50
2022-08-17T16:32:59.448Z,100253.28
2022-08-17T16:37:55.090Z,100256.78
2022-08-17T16:42:51.343Z,100328.75
2022-08-17T16:47:44.502Z,100369.94
2022-08-17T16:52:38.774Z,100327.41
2022-08-17T16:57:32.691Z,100398.03
2022-08-17T17:02:38.995Z,100372.69
2022-08-17T17:07:52.371Z,100454.91
2022-08-17T17:13:02.530Z,100455.97
2022-08-17T17:18:06.936Z,100457.00
2022-08-17T17:23:34.458Z,100388.34
2022-08-17T17:28:56.511Z,100405.97
2022-08-17T17:33:54.227Z,100362.59
2022-08-17T17:39:00.257Z,100346.16
2022-08-17T17:44:02.917Z,100333.25
2022-08-17T17:48:55.796Z,100319.97
2022-08-17T17:54:15.210Z,100305.03
2022-08-17T17:59:07.603Z,100307.75
2022-08-17T18:04:20.778Z,100316.81
2022-08-17T18:09:20.279Z,100323.72
2022-08-17T18:14:39.503Z,100310.81
2022-08-17T18:19:33.268Z,100334.88
2022-08-17T18:24:42.452Z,100359.59
2022-08-17T18:29:45.079Z,100373.91
2022-08-17T18:34:47.655Z,100366.66
2022-08-17T18:39:42.441Z,100346.69
2022-08-17T18:44:38.637Z,100359.34
2022-08-17T18:49:32.629Z,100364.38
2022-08-17T18:54:27.444Z,100349.94
2022-08-17T18:59:49.140Z,100405.03
2022-08-17T19:05:01.908Z,100413.66
2022-08-17T19:10:17.846Z,100400.06
2022-08-17T19:15:15.263Z,100430.25
2022-08-17T19:20:23.640Z,100401.09
2022-08-17T19:25:29.971Z,100441.84
2022-08-17T19:30:24.376Z,100432.84
2022-08-17T19:35:21.013Z,100430.28
2022-08-17T19:40:52.752Z,100412.19
2022-08-17T19:46:08.025Z,100396.13
2022-08-17T19:51:34.935Z,100413.19
2022-08-17T19:56:55.216Z,100429.44
2022-08-17T20:02:28.578Z,100433.47
2022-08-17T20:07:43.096Z,100410.03
2022-08-17T20:12:39.549Z,100405.59
2022-08-17T20:17:42.328Z,100397.19
2022-08-17T20:23:15.250Z,100418.25
2022-08-17T20:28:31.486Z,100407.91
2022-08-17T20:33:30.923Z,100438.34
2022-08-17T20:38:42.297Z,100442.09
2022-08-17T20:43:35.515Z,100429.00
2022-08-17T20:48:38.662Z,100406.00
2022-08-17T20:53:50.155Z,100450.47
2022-08-17T20:58:47.509Z,100431.28
2022-08-17T21:03:50.273Z,100438.44
2022-08-17T21:08:54.102Z,100438.44
2022-08-17T21:13:56.820Z,100438.78
2022-08-17T21:19:44.407Z,100427.75
2022-08-17T21:25:22.462Z,100427.91
2022-08-17T21:30:48.936Z,100417.31
2022-08-17T21:36:00.966Z,100453.38
2022-08-17T21:40:55.315Z,100445.78
2022-08-17T21:46:13.205Z,100456.06
2022-08-17T21:51:50.399Z,100457.03
2022-08-17T21:56:48.468Z,100417.06
2022-08-17T22:01:43.444Z,100447.59
2022-08-17T22:06:42.042Z,100440.88
2022-08-17T22:11:57.178Z,100445.91
2022-08-17T22:17:24.693Z,100428.38
2022-08-17T22:23:05.121Z,100452.84
2022-08-17T22:28:05.718Z,100405.97
2022-08-17T22:33:00.499Z,100424.25
2022-08-17T22:37:54.548Z,100399.25
2022-08-17T22:42:48.724Z,100432.03
2022-08-17T22:47:52.305Z,100418.84
2022-08-17T22:53:05.171Z,100399.09
2022-08-17T22:58:16.213Z,100419.22
2022-08-17T23:03:11.721Z,100422.88
2022-08-17T23:08:05.145Z,100407.94
2022-08-17T23:13:01.176Z,100426.81
2022-08-17T23:17:54.801Z,100424.19
2022-08-17T23:22:52.653Z,100412.66
2022-08-17T23:27:49.914Z,100397.81
2022-08-17T23:32:53.863Z,100398.75
2022-08-17T23:37:47.733Z,100410.63
2022-08-17T23:42:46.381Z,100407.38
2022-08-17T23:47:45.404Z,100385.84
2022-08-17T23:52:42.102Z,100376.47
2022-08-17T23:57:36.257Z,100359.41
